KBGR

Bangor International Airport

Bangor, Maine, USA
METAR KBGR 151853Z 27006KT 10SM FEW100 SCT200 M07/M14 A2997 RMK AO2 SLP153 T10671139
Observed Flight Rules
Dec-15 @ 18:53 UTC (53 minutes ago) Visual Flight Rules
Wind Visibility Clouds
270° at 6 knots 10 miles
  • Few at 10,000' AGL
  • Scattered at 20,000' AGL
Temperatures Readings
Current -7°C / 19°F
Dewpoint -14°C / 7°F
Humidity 58%
Altimeter 29.97" Hg
Pressure 1015.3 hPa
Elevation 57
METAR KBGR 151853Z 27006KT 10SM FEW100 SCT200 M07/M14 A2997 RMK AO2 SLP153 T10671139
Observed Flight Rules
Dec-15 @ 18:53 UTC
(53 minutes ago)
VFR
Wind Visibility
270° at 6 knots 10 miles
Clouds
  • Few at 10,000' AGL
  • Scattered at 20,000' AGL
Temperature Dewpoint
-7°C / 19°F -14°C / 7°F
Humidity Altimeter Pressure
58% 29.97" Hg 1015.3 hPa